Time;durP1;ratioP1;P1;durP2;ratioP2;P2;SDS_P1;SDS_P2;PMS_P1;PMS_P2;Temp;Humidity;BMP_temperature;BMP_pressure;BME280_temperature;BME280_humidity;BME280_pressure;Samples;Min_cycle;Max_cycle;Signal;HPM_P1;HPM_P2
2022/09/24 00:02:20;;;;;;;45.55;33.42;;;;;;;12.84;100.00;101234.84;4993208;28;20046;-82
2022/09/24 00:04:49;;;;;;;53.90;36.65;;;;;;;12.83;100.00;101234.84;4963083;28;20061;-82
2022/09/24 00:07:17;;;;;;;42.95;32.67;;;;;;;12.81;100.00;101232.19;4992398;28;20054;-80
2022/09/24 00:09:45;;;;;;;57.42;36.78;;;;;;;12.80;100.00;101233.09;4972226;28;20050;-81
2022/09/24 00:12:14;;;;;;;53.53;36.72;;;;;;;12.80;100.00;101229.56;4977052;28;20038;-80
2022/09/24 00:14:42;;;;;;;51.25;33.88;;;;;;;12.80;100.00;101229.56;4980812;28;20412;-82
2022/09/24 00:17:10;;;;;;;57.60;39.92;;;;;;;12.79;100.00;101223.38;4989408;28;20042;-81
2022/09/24 00:19:39;;;;;;;56.45;37.35;;;;;;;12.80;100.00;101216.34;4949403;28;20041;-83
2022/09/24 00:22:08;;;;;;;48.38;36.83;;;;;;;12.79;100.00;101223.38;4966772;28;20443;-81
2022/09/24 00:27:26;;;;;;;51.60;35.78;;;;;;;12.80;100.00;101224.28;5004816;28;20060;-82
2022/09/24 00:29:54;;;;;;;49.70;35.78;;;;;;;12.81;100.00;101215.44;4981069;28;20038;-80
2022/09/24 00:32:23;;;;;;;44.08;33.13;;;;;;;12.82;100.00;101219.88;5004755;28;20387;-81
2022/09/24 00:34:53;;;;;;;50.17;34.40;;;;;;;12.82;100.00;101212.81;4929953;28;20274;-80
2022/09/24 00:37:21;;;;;;;50.10;35.17;;;;;;;12.83;100.00;101224.25;4986638;28;20053;-82
2022/09/24 00:39:49;;;;;;;55.05;38.42;;;;;;;12.83;100.00;101214.56;4976654;28;20050;-82
2022/09/24 00:42:18;;;;;;;53.45;37.92;;;;;;;12.85;100.00;101214.56;4958619;28;20034;-81
2022/09/24 00:44:53;;;;;;;62.83;42.50;;;;;;;12.84;100.00;101221.63;4982124;28;20049;-82
2022/09/24 00:47:48;;;;;;;51.00;37.38;;;;;;;12.85;100.00;101209.28;4981812;28;20047;-82
2022/09/24 00:50:21;;;;;;;52.05;38.15;;;;;;;12.85;100.00;101207.53;4969104;28;20050;-82
2022/09/24 00:53:11;;;;;;;56.75;38.10;;;;;;;12.87;100.00;101210.16;4983283;28;20046;-82
2022/09/24 00:55:44;;;;;;;54.63;37.70;;;;;;;12.86;100.00;101209.28;5010382;28;20137;-81
2022/09/24 00:58:13;;;;;;;65.05;41.72;;;;;;;12.86;100.00;101208.41;4981043;28;20042;-82
2022/09/24 01:00:43;;;;;;;57.20;40.10;;;;;;;12.86;100.00;101211.06;5001582;28;20050;-82
2022/09/24 01:03:20;;;;;;;64.88;41.97;;;;;;;12.84;100.00;101208.41;5012632;28;20046;-83
2022/09/24 01:05:49;;;;;;;53.05;38.95;;;;;;;12.85;100.00;101207.53;4993874;28;20049;-81
2022/09/24 01:08:21;;;;;;;56.80;39.45;;;;;;;12.85;100.00;101207.53;4963922;28;20057;-80
2022/09/24 01:11:17;;;;;;;55.65;39.38;;;;;;;12.86;100.00;101203.13;4991224;28;20565;-84
2022/09/24 01:14:05;;;;;;;53.40;37.25;;;;;;;12.84;100.00;101213.69;4949572;28;20511;-81
2022/09/24 01:16:49;;;;;;;52.35;37.13;;;;;;;12.84;100.00;101204.88;4995142;28;20498;-83
2022/09/24 01:19:36;;;;;;;66.80;43.17;;;;;;;12.85;100.00;101204.91;5010527;28;20046;-84
2022/09/24 01:22:31;;;;;;;75.88;47.22;;;;;;;12.85;100.00;101201.34;5022590;28;20042;-83
2022/09/24 01:25:06;;;;;;;70.90;46.67;;;;;;;12.84;100.00;101203.13;4974015;28;20046;-84
2022/09/24 01:27:55;;;;;;;78.82;47.17;;;;;;;12.83;100.00;101198.69;5007670;28;20049;-83
2022/09/24 01:30:24;;;;;;;78.05;47.47;;;;;;;12.83;100.00;101193.41;5015801;28;20517;-83
2022/09/24 01:33:02;;;;;;;82.13;50.35;;;;;;;12.85;100.00;101196.06;5026057;28;20056;-83
2022/09/24 01:35:30;;;;;;;75.47;47.20;;;;;;;12.83;100.00;101185.47;5016748;28;20062;-83
2022/09/24 01:38:22;;;;;;;81.43;48.53;;;;;;;12.85;100.00;101193.41;4988942;28;20048;-84
2022/09/24 01:40:54;;;;;;;81.90;52.35;;;;;;;12.83;100.00;101182.81;5004954;28;20118;-83
2022/09/24 01:43:25;;;;;;;76.22;49.53;;;;;;;12.83;100.00;101188.13;5012930;28;20057;-82
2022/09/24 01:45:58;;;;;;;94.32;54.15;;;;;;;12.83;100.00;101188.13;5000558;28;20046;-84
2022/09/24 01:48:27;;;;;;;79.68;50.70;;;;;;;12.84;100.00;101189.88;5020899;28;20046;-82
2022/09/24 01:51:02;;;;;;;77.73;52.03;;;;;;;12.83;100.00;101188.13;4982786;28;20053;-85
2022/09/24 01:53:44;;;;;;;85.90;52.65;;;;;;;12.84;100.00;101184.59;5013061;28;20281;-82
2022/09/24 01:56:32;;;;;;;102.65;56.78;;;;;;;12.86;100.00;101185.47;4988941;28;20053;-84
2022/09/24 01:59:28;;;;;;;99.13;57.65;;;;;;;12.85;100.00;101186.38;5014658;28;20052;-83
2022/09/24 02:02:07;;;;;;;95.45;58.85;;;;;;;12.86;100.00;101187.25;4987158;28;20042;-83
2022/09/24 02:04:43;;;;;;;103.80;58.80;;;;;;;12.87;100.00;101179.31;4997445;28;20048;-83
2022/09/24 02:07:31;;;;;;;82.22;53.33;;;;;;;12.87;100.00;101179.31;5021384;28;20036;-83
2022/09/24 02:09:59;;;;;;;89.53;56.05;;;;;;;12.88;100.00;101181.06;4985628;28;20155;-83
2022/09/24 02:12:34;;;;;;;107.28;60.90;;;;;;;12.90;100.00;101172.25;4993264;28;20035;-83
2022/09/24 02:15:09;;;;;;;101.75;60.88;;;;;;;12.89;100.00;101176.66;4989811;28;20050;-85
2022/09/24 02:17:42;;;;;;;107.25;61.85;;;;;;;12.88;100.00;101175.78;5001197;28;20046;-84
2022/09/24 02:20:18;;;;;;;99.35;61.75;;;;;;;12.90;100.00;101182.84;4977023;28;20060;-84
2022/09/24 02:22:50;;;;;;;102.68;63.00;;;;;;;12.90;100.00;101173.13;5003777;28;20051;-82
2022/09/24 02:26:00;;;;;;;102.18;60.90;;;;;;;12.90;100.00;101173.13;4983043;28;20053;-83
2022/09/24 02:28:31;;;;;;;88.93;56.35;;;;;;;12.92;100.00;101170.50;4986220;28;20034;-83
2022/09/24 02:31:26;;;;;;;98.25;59.60;;;;;;;12.93;100.00;101178.44;5000865;28;20276;-83
2022/09/24 02:36:58;;;;;;;85.72;56.50;;;;;;;12.96;100.00;101166.97;5026499;28;20056;-83
2022/09/24 02:39:27;;;;;;;113.97;63.95;;;;;;;12.97;100.00;101159.03;5011754;28;20403;-82
2022/09/24 02:41:57;;;;;;;124.63;67.22;;;;;;;12.98;100.00;101159.91;4983508;28;20047;-84
2022/09/24 02:44:25;;;;;;;123.05;67.05;;;;;;;12.97;100.00;101158.16;5004365;28;20042;-83
2022/09/24 02:46:54;;;;;;;118.93;64.80;;;;;;;12.98;100.00;101160.78;5006243;28;20073;-82
2022/09/24 02:49:23;;;;;;;132.95;68.05;;;;;;;12.98;100.00;101154.59;5012885;28;20046;-84
2022/09/24 02:51:51;;;;;;;135.15;69.18;;;;;;;12.96;100.00;101154.59;5028095;28;20053;-82
2022/09/24 02:54:21;;;;;;;132.15;69.68;;;;;;;12.95;100.00;101158.16;4990647;28;20043;-84
2022/09/24 02:56:49;;;;;;;118.53;68.20;;;;;;;12.96;100.00;101156.38;5002792;28;20054;-83
2022/09/24 02:59:18;;;;;;;111.60;64.65;;;;;;;12.95;100.00;101154.59;5029691;28;20053;-83
2022/09/24 03:01:47;;;;;;;131.32;71.55;;;;;;;12.96;100.00;101151.09;4999368;28;20058;-83
2022/09/24 03:04:15;;;;;;;144.60;72.90;;;;;;;12.96;100.00;101145.78;5020337;28;20065;-83
2022/09/24 03:06:44;;;;;;;104.38;63.00;;;;;;;12.98;100.00;101150.19;5007006;28;20035;-82
2022/09/24 03:09:12;;;;;;;92.15;59.42;;;;;;;12.99;100.00;101154.59;5007998;28;20046;-82
2022/09/24 03:11:41;;;;;;;112.22;62.22;;;;;;;13.02;100.00;101156.34;5000436;28;20034;-82
2022/09/24 03:14:09;;;;;;;92.50;59.90;;;;;;;13.04;100.00;101151.94;5001228;28;20042;-83
2022/09/24 03:16:38;;;;;;;97.95;61.03;;;;;;;13.05;100.00;101148.44;5024748;28;20052;-83
2022/09/24 03:19:06;;;;;;;108.43;61.75;;;;;;;13.06;100.00;101155.47;5006337;28;20305;-85
2022/09/24 03:21:35;;;;;;;108.28;62.95;;;;;;;13.07;100.00;101152.81;5003064;28;20286;-83
2022/09/24 03:24:03;;;;;;;137.70;69.25;;;;;;;13.09;100.00;101155.47;4993231;28;20072;-82
2022/09/24 03:26:32;;;;;;;102.88;61.70;;;;;;;13.09;100.00;101157.25;5014799;28;20048;-81
2022/09/24 03:29:00;;;;;;;129.18;67.85;;;;;;;13.09;100.00;101152.81;4977098;28;20056;-82
2022/09/24 03:31:29;;;;;;;148.18;68.97;;;;;;;13.10;100.00;101158.97;4992919;28;20042;-84
2022/09/24 03:33:58;;;;;;;119.43;65.63;;;;;;;13.09;100.00;101149.31;4976551;28;20080;-82
2022/09/24 03:36:26;;;;;;;147.45;69.60;;;;;;;13.09;100.00;101152.81;5000179;28;20433;-83
2022/09/24 03:38:55;;;;;;;136.68;69.18;;;;;;;13.09;100.00;101150.19;4991683;28;20080;-83
2022/09/24 03:41:26;;;;;;;132.35;69.57;;;;;;;13.09;100.00;101150.19;4990833;28;20042;-83
2022/09/24 03:43:55;;;;;;;154.90;70.10;;;;;;;13.09;100.00;101150.19;4953422;28;20037;-83
2022/09/24 03:46:28;;;;;;;148.00;71.03;;;;;;;13.10;100.00;101144.00;4995888;28;20038;-83
2022/09/24 03:48:59;;;;;;;135.30;67.88;;;;;;;13.09;100.00;101147.53;4995059;28;20050;-83
2022/09/24 03:51:27;;;;;;;127.03;65.97;;;;;;;13.09;100.00;101147.53;4971930;28;20057;-84
2022/09/24 03:53:56;;;;;;;156.10;71.18;;;;;;;13.09;100.00;101150.19;4960759;28;20042;-83
2022/09/24 03:56:24;;;;;;;123.28;65.40;;;;;;;13.08;100.00;101140.50;4976252;28;20389;-83
2022/09/24 03:58:53;;;;;;;115.00;62.53;;;;;;;13.08;100.00;101143.13;4970721;28;20050;-85
2022/09/24 04:01:22;;;;;;;105.78;61.28;;;;;;;13.07;100.00;101144.00;4975720;28;20053;-82
2022/09/24 04:03:50;;;;;;;134.27;67.38;;;;;;;13.08;100.00;101145.78;4988591;28;20046;-82
2022/09/24 04:06:18;;;;;;;105.15;62.20;;;;;;;13.07;100.00;101138.72;4994273;28;20054;-83
2022/09/24 04:08:53;;;;;;;137.40;68.28;;;;;;;13.08;100.00;101148.44;4993736;28;20050;-83
2022/09/24 04:11:22;;;;;;;143.32;68.03;;;;;;;13.09;100.00;101144.00;5000590;28;20053;-83
2022/09/24 04:13:51;;;;;;;152.32;67.95;;;;;;;13.08;100.00;101148.44;4934046;28;20142;-82
2022/09/24 04:16:20;;;;;;;139.82;68.20;;;;;;;13.08;100.00;101145.78;4981268;28;20034;-84
2022/09/24 04:18:49;;;;;;;120.25;61.30;;;;;;;13.09;100.00;101142.25;4977531;28;20049;-83
2022/09/24 04:21:18;;;;;;;127.00;63.38;;;;;;;13.09;100.00;101142.25;4995341;28;20406;-83
2022/09/24 04:23:46;;;;;;;102.65;57.28;;;;;;;13.09;100.00;101139.59;4999133;28;20511;-83
2022/09/24 04:26:16;;;;;;;82.18;50.70;;;;;;;13.11;100.00;101145.75;4996040;28;20042;-83
2022/09/24 04:28:44;;;;;;;76.50;48.03;;;;;;;13.10;100.00;101138.72;5011723;28;20042;-83
2022/09/24 04:31:13;;;;;;;70.60;44.95;;;;;;;13.10;100.00;101138.72;4939728;28;20053;-83
2022/09/24 04:33:43;;;;;;;73.32;46.65;;;;;;;13.12;100.00;101146.63;4977330;28;20053;-83
2022/09/24 04:36:11;;;;;;;69.85;45.88;;;;;;;13.13;100.00;101137.81;4993578;28;20936;-84
2022/09/24 04:38:39;;;;;;;70.22;45.13;;;;;;;13.13;100.00;101135.19;5009437;28;20507;-84
2022/09/24 04:41:08;;;;;;;61.67;42.17;;;;;;;13.14;100.00;101139.59;4991516;28;20052;-83
2022/09/24 04:43:39;;;;;;;67.65;44.17;;;;;;;13.14;100.00;101136.94;4993002;28;20402;-84
2022/09/24 04:46:08;;;;;;;59.50;41.42;;;;;;;13.13;100.00;101132.53;4958759;28;20038;-84
2022/09/24 04:48:38;;;;;;;73.57;43.45;;;;;;;13.13;100.00;101133.41;4992936;28;20106;-84
2022/09/24 04:51:09;;;;;;;69.10;43.35;;;;;;;13.14;100.00;101131.66;4994178;28;20515;-82
2022/09/24 04:53:38;;;;;;;62.00;40.50;;;;;;;13.13;100.00;101133.41;4987163;28;20526;-83
2022/09/24 04:56:10;;;;;;;61.45;39.72;;;;;;;13.15;100.00;101131.63;5014460;28;20057;-83
2022/09/24 04:58:39;;;;;;;63.15;38.63;;;;;;;13.15;100.00;101130.75;5016896;28;20052;-83
2022/09/24 05:01:08;;;;;;;60.95;36.72;;;;;;;13.16;100.00;101130.75;4965208;28;21816;-83
2022/09/24 05:03:36;;;;;;;59.50;36.70;;;;;;;13.16;100.00;101133.41;4990441;28;20029;-83
2022/09/24 05:06:05;;;;;;;46.15;31.27;;;;;;;13.18;100.00;101136.06;4985138;28;20050;-83
2022/09/24 05:08:34;;;;;;;57.65;34.90;;;;;;;13.19;100.00;101137.78;4974693;28;20053;-83
2022/09/24 05:11:02;;;;;;;48.47;33.20;;;;;;;13.22;100.00;101145.75;4995559;28;20056;-82
2022/09/24 05:13:31;;;;;;;25.55;15.23;;;;;;;13.22;100.00;101140.44;4996371;28;20403;-83
2022/09/24 05:16:00;;;;;;;30.30;16.48;;;;;;;13.23;100.00;101132.50;4978535;28;20160;-83
2022/09/24 05:18:29;;;;;;;29.02;15.57;;;;;;;13.24;100.00;101136.91;4925095;28;20050;-83
2022/09/24 05:20:57;;;;;;;19.35;7.88;;;;;;;13.25;100.00;101133.38;5008024;28;20041;-82
2022/09/24 05:23:26;;;;;;;15.63;6.07;;;;;;;13.27;100.00;101133.38;4977630;28;20046;-85
2022/09/24 05:28:41;;;;;;;15.70;3.45;;;;;;;13.29;100.00;101134.25;5003172;28;20047;-82
2022/09/24 05:31:10;;;;;;;10.98;3.45;;;;;;;13.28;100.00;101137.78;5007093;28;20346;-81
2022/09/24 05:33:39;;;;;;;14.07;3.15;;;;;;;13.29;100.00;101133.34;4965100;28;20038;-84
2022/09/24 05:36:07;;;;;;;8.88;2.80;;;;;;;13.29;100.00;101133.34;4976866;28;20050;-83
2022/09/24 05:38:35;;;;;;;12.18;2.30;;;;;;;13.30;100.00;101135.13;4990687;28;20034;-84
2022/09/24 05:41:09;;;;;;;14.95;3.05;;;;;;;13.28;100.00;101132.47;4988569;28;20578;-83
2022/09/24 05:43:39;;;;;;;9.57;2.28;;;;;;;13.30;100.00;101133.38;4993515;28;20037;-84
2022/09/24 05:46:07;;;;;;;9.63;2.10;;;;;;;13.30;100.00;101137.78;5003174;28;20042;-85
2022/09/24 05:48:36;;;;;;;12.68;3.35;;;;;;;13.31;100.00;101142.19;4969661;28;20333;-82
2022/09/24 05:51:05;;;;;;;13.02;3.17;;;;;;;13.32;100.00;101146.63;4948057;28;20498;-83
2022/09/24 05:53:34;;;;;;;10.10;1.88;;;;;;;13.31;100.00;101147.50;4986089;28;20038;-82
2022/09/24 05:56:02;;;;;;;10.27;1.98;;;;;;;13.32;100.00;101149.25;4971516;28;20243;-83
2022/09/24 05:58:31;;;;;;;13.63;2.47;;;;;;;13.34;100.00;101158.06;4968752;28;20054;-83
2022/09/24 06:01:00;;;;;;;13.55;2.42;;;;;;;13.35;100.00;101154.56;4991793;28;20366;-84
2022/09/24 06:03:28;;;;;;;10.95;1.67;;;;;;;13.36;100.00;101149.22;4996177;28;20060;-81
2022/09/24 06:06:01;;;;;;;8.75;2.05;;;;;;;13.38;100.00;101159.81;4966059;28;20532;-82
2022/09/24 06:08:32;;;;;;;11.20;2.15;;;;;;;13.37;100.00;101153.66;4970804;28;20050;-83
2022/09/24 06:11:13;;;;;;;10.98;2.30;;;;;;;13.38;100.00;101155.44;4966057;28;20061;-81
2022/09/24 06:13:41;;;;;;;7.30;1.95;;;;;;;13.38;100.00;101160.72;4992335;28;20053;-83
2022/09/24 06:16:11;;;;;;;10.38;2.00;;;;;;;13.40;100.00;101155.41;5003992;28;20038;-82
2022/09/24 06:18:43;;;;;;;12.90;2.65;;;;;;;13.41;100.00;101160.69;4996259;28;20117;-81
2022/09/24 06:21:13;;;;;;;19.38;2.58;;;;;;;13.42;100.00;101159.81;4968271;28;20050;-81
2022/09/24 06:23:44;;;;;;;10.13;2.92;;;;;;;13.41;100.00;101154.53;4991736;28;20043;-81
2022/09/24 06:26:13;;;;;;;;;;;;;;;13.42;100.00;101156.28;4990928;28;20046;-80
2022/09/24 06:28:41;;;;;;;11.95;1.90;;;;;;;13.42;100.00;101158.91;4984381;28;19928;-80
2022/09/24 06:31:11;;;;;;;13.43;2.40;;;;;;;13.44;100.00;101162.47;4956655;28;20342;-81
2022/09/24 06:33:39;;;;;;;12.90;2.50;;;;;;;13.43;100.00;101164.22;4993719;28;20046;-80
2022/09/24 06:36:09;;;;;;;14.05;2.40;;;;;;;13.43;100.00;101163.34;4949923;28;20515;-81
2022/09/24 06:38:39;;;;;;;11.85;2.95;;;;;;;13.42;100.00;101158.91;5001845;28;20061;-80
2022/09/24 06:41:08;;;;;;;6.10;1.85;;;;;;;13.42;100.00;101161.56;4989251;28;20515;-82
2022/09/24 06:43:37;;;;;;;5.13;1.90;;;;;;;13.42;100.00;101170.41;4985333;28;20045;-83
2022/09/24 06:46:05;;;;;;;11.13;2.85;;;;;;;13.42;100.00;101172.16;4986962;28;20501;-82
2022/09/24 06:48:36;;;;;;;8.15;1.77;;;;;;;13.42;100.00;101169.50;4994242;28;20050;-83
2022/09/24 06:51:06;;;;;;;12.43;2.47;;;;;;;13.41;100.00;101167.75;4952547;28;21188;-82
2022/09/24 06:53:34;;;;;;;8.55;1.50;;;;;;;13.42;100.00;101166.88;4996357;28;20053;-83
2022/09/24 06:56:03;;;;;;;4.32;1.77;;;;;;;13.41;100.00;101170.41;5006772;28;20058;-81
2022/09/24 06:58:32;;;;;;;4.50;1.23;;;;;;;13.40;100.00;101169.53;5001891;28;20050;-82
2022/09/24 07:01:13;;;;;;;6.50;1.70;;;;;;;13.39;100.00;101175.72;4986337;28;20041;-81
2022/09/24 07:03:42;;;;;;;11.50;2.15;;;;;;;13.37;100.00;101169.53;4991945;28;20046;-81
2022/09/24 07:06:11;;;;;;;7.10;1.67;;;;;;;13.39;100.00;101170.41;5012935;28;20041;-82
2022/09/24 07:08:40;;;;;;;7.22;1.80;;;;;;;13.40;100.00;101173.94;4965493;28;20033;-82
2022/09/24 07:11:12;;;;;;;16.17;2.60;;;;;;;13.42;100.00;101178.34;5010647;28;20053;-80
2022/09/24 07:13:40;;;;;;;8.23;1.70;;;;;;;13.44;100.00;101184.53;4981486;28;20064;-81
2022/09/24 07:16:09;;;;;;;9.73;1.75;;;;;;;13.43;100.00;101179.22;4966389;28;20407;-82
2022/09/24 07:18:37;;;;;;;9.57;1.95;;;;;;;13.44;100.00;101181.88;4975753;28;20043;-83
2022/09/24 07:21:06;;;;;;;5.28;1.70;;;;;;;13.47;100.00;101186.25;4980123;28;20065;-82
2022/09/24 07:23:34;;;;;;;11.40;2.03;;;;;;;13.49;100.00;101187.13;4962594;28;20442;-81
2022/09/24 07:26:03;;;;;;;11.25;2.47;;;;;;;13.52;100.00;101184.50;4982148;28;20492;-80
2022/09/24 07:28:31;;;;;;;9.70;1.90;;;;;;;13.54;100.00;101193.31;4983575;28;20281;-83
2022/09/24 07:31:00;;;;;;;7.53;1.90;;;;;;;13.57;100.00;101203.00;4973010;28;20057;-82
2022/09/24 07:33:30;;;;;;;11.15;2.35;;;;;;;13.57;100.00;101195.06;4984125;28;20617;-82
2022/09/24 07:36:04;;;;;;;13.25;2.33;;;;;;;13.58;100.00;101203.00;5013947;28;20053;-82
2022/09/24 07:38:35;;;;;;;5.68;1.85;;;;;;;13.58;100.00;101200.34;4964245;28;20064;-82
2022/09/24 07:41:04;;;;;;;14.75;2.63;;;;;;;13.58;100.00;101205.66;4987113;28;20038;-83
2022/09/24 07:43:33;;;;;;;9.47;2.53;;;;;;;13.59;100.00;101204.78;4953796;28;20046;-83
2022/09/24 07:46:01;;;;;;;12.95;2.17;;;;;;;13.62;100.00;101207.38;5000049;28;20292;-81
2022/09/24 07:48:30;;;;;;;10.18;2.63;;;;;;;13.63;100.00;101200.34;4975128;28;20041;-81
2022/09/24 07:50:59;;;;;;;8.10;1.88;;;;;;;13.65;100.00;101202.09;4964429;28;20065;-81
2022/09/24 07:53:27;;;;;;;11.00;2.95;;;;;;;13.65;100.00;101206.53;4963093;28;20175;-81
2022/09/24 07:55:59;;;;;;;14.48;2.60;;;;;;;13.65;100.00;101212.69;4993938;28;20042;-81
2022/09/24 07:58:28;;;;;;;14.55;2.30;;;;;;;13.67;100.00;101211.78;4988173;28;20339;-81
2022/09/24 08:00:58;;;;;;;15.10;2.55;;;;;;;13.67;100.00;101209.13;4988759;28;20050;-82
2022/09/24 08:03:26;;;;;;;10.43;2.63;;;;;;;13.68;100.00;101211.78;4988676;28;20235;-81
2022/09/24 08:05:57;;;;;;;16.77;3.03;;;;;;;13.71;100.00;101210.91;4987447;28;20041;-81
2022/09/24 08:08:26;;;;;;;10.68;2.58;;;;;;;13.75;100.00;101210.00;4963095;28;20045;-80
2022/09/24 08:10:54;;;;;;;9.63;2.40;;;;;;;13.79;100.00;101214.41;5012561;28;20054;-82
2022/09/24 08:13:24;;;;;;;11.77;2.45;;;;;;;13.83;100.00;101222.31;5004426;28;20046;-82
2022/09/24 08:15:58;;;;;;;11.32;2.30;;;;;;;13.87;100.00;101217.88;4961977;28;20047;-81
2022/09/24 08:18:28;;;;;;;12.38;2.03;;;;;;;13.93;100.00;101219.63;4986995;28;20041;-80
2022/09/24 08:20:58;;;;;;;8.97;2.07;;;;;;;13.99;100.00;101217.84;4999778;28;20050;-82
2022/09/24 08:23:27;;;;;;;9.52;1.98;;;;;;;14.02;100.00;101216.94;4988882;28;20042;-82
2022/09/24 08:25:55;;;;;;;9.00;2.00;;;;;;;14.07;100.00;101225.75;4941696;28;20041;-82
2022/09/24 08:28:24;;;;;;;10.25;1.65;;;;;;;14.13;100.00;101224.84;4970602;28;20046;-82
2022/09/24 08:30:57;;;;;;;12.40;2.25;;;;;;;14.15;100.00;101223.94;4985576;28;20649;-82
2022/09/24 08:33:31;;;;;;;7.30;2.65;;;;;;;14.18;100.00;101229.22;4976249;28;20591;-81
2022/09/24 08:36:01;;;;;;;6.78;1.90;;;;;;;14.16;100.00;101231.00;4983208;28;20045;-82
2022/09/24 08:38:30;;;;;;;8.18;2.45;;;;;;;14.10;100.00;101240.75;4976452;28;20042;-82
2022/09/24 08:41:11;;;;;;;8.18;1.63;;;;;;;14.02;100.00;101241.66;4970458;28;20038;-82
2022/09/24 08:44:00;;;;;;;7.47;1.98;;;;;;;13.98;100.00;101239.03;5007903;28;20046;-81
2022/09/24 08:49:43;;;;;;;8.18;1.77;;;;;;;13.89;100.00;101241.72;4988101;28;20623;-81
2022/09/24 08:52:24;;;;;;;5.90;2.42;;;;;;;13.89;100.00;101250.53;5001401;28;20042;-82
2022/09/24 08:54:55;;;;;;;9.82;1.83;;;;;;;13.91;100.00;101245.25;4984468;28;20392;-82
2022/09/24 08:57:26;;;;;;;6.75;1.90;;;;;;;13.92;100.00;101258.50;4978288;28;20042;-81
2022/09/24 08:59:54;;;;;;;9.77;1.83;;;;;;;13.96;100.00;101262.00;4990430;28;20038;-81
2022/09/24 09:02:32;;;;;;;6.95;2.10;;;;;;;13.98;100.00;101253.16;4964764;28;20053;-79
2022/09/24 09:05:26;;;;;;;6.47;2.15;;;;;;;14.01;100.00;101263.75;4988823;28;20040;-80
2022/09/24 09:08:12;;;;;;;11.25;2.17;;;;;;;14.04;100.00;101263.75;4977755;28;20409;-82
2022/09/24 09:11:03;;;;;;;5.07;1.70;;;;;;;14.04;100.00;101258.44;4985503;28;20049;-82
2022/09/24 09:13:38;;;;;;;5.93;1.48;;;;;;;14.05;100.00;101259.31;4930688;28;20038;-82
2022/09/24 09:16:43;;;;;;;15.27;2.83;;;;;;;14.02;100.00;101264.63;4994317;28;20049;-80
2022/09/24 09:19:14;;;;;;;11.40;2.63;;;;;;;13.99;100.00;101272.63;4972158;28;20499;-80
2022/09/24 09:21:51;;;;;;;9.65;1.80;;;;;;;13.97;100.00;101269.97;4996185;28;20073;-82
2022/09/24 09:24:43;;;;;;;11.63;2.65;;;;;;;13.97;100.00;101267.31;5008714;28;20046;-80
2022/09/24 09:27:14;;;;;;;11.15;1.90;;;;;;;13.95;100.00;101270.84;4967991;28;20046;-82
2022/09/24 09:29:49;;;;;;;10.25;2.60;;;;;;;13.93;100.00;101264.66;4963835;28;20238;-82
2022/09/24 09:32:35;;;;;;;10.93;1.80;;;;;;;13.91;100.00;101274.38;5000300;28;20069;-82
2022/09/24 09:35:20;;;;;;;10.55;2.58;;;;;;;13.90;100.00;101273.50;4991077;28;20395;-81
2022/09/24 09:38:07;;;;;;;7.60;2.28;;;;;;;13.91;100.00;101269.97;4988683;28;20042;-82
2022/09/24 09:40:56;;;;;;;14.63;2.45;;;;;;;13.86;100.00;101278.84;4992960;28;20046;-81
2022/09/24 09:43:25;;;;;;;12.65;2.65;;;;;;;13.85;100.00;101283.25;4966812;28;21740;-82
2022/09/24 09:46:17;;;;;;;10.27;2.65;;;;;;;13.83;100.00;101285.00;5014104;28;20042;-81
2022/09/24 09:48:53;;;;;;;12.07;2.08;;;;;;;13.83;100.00;101291.19;4983230;28;20061;-81
2022/09/24 09:51:24;;;;;;;10.30;1.70;;;;;;;13.85;100.00;101280.59;4965716;28;20030;-81
2022/09/24 09:53:56;;;;;;;5.72;1.88;;;;;;;13.86;100.00;101285.00;4986061;28;20518;-82
2022/09/24 09:56:35;;;;;;;10.40;2.17;;;;;;;13.88;100.00;101283.25;4974591;28;20050;-80
2022/09/24 09:59:16;;;;;;;8.80;2.30;;;;;;;13.92;100.00;101289.41;4970452;28;20379;-83
2022/09/24 10:01:47;;;;;;;9.68;2.20;;;;;;;13.92;100.00;101292.06;4970530;28;20283;-80
2022/09/24 10:04:34;;;;;;;11.88;2.53;;;;;;;13.88;100.00;101285.88;4974903;28;20034;-81
2022/09/24 10:07:15;;;;;;;9.93;2.58;;;;;;;13.83;100.00;101293.84;4994867;28;20038;-81
2022/09/24 10:09:44;;;;;;;;;;;;;;;13.80;100.00;101290.34;4985153;28;20523;-80
2022/09/24 10:12:20;;;;;;;9.30;1.85;;;;;;;13.82;100.00;101293.88;4992659;28;19972;-81
2022/09/24 10:15:05;;;;;;;6.97;2.13;;;;;;;13.81;100.00;101292.09;4967136;28;20046;-81
2022/09/24 10:17:36;;;;;;;6.05;1.83;;;;;;;13.76;100.00;101294.75;4995985;28;20147;-81
2022/09/24 10:20:28;;;;;;;5.55;1.50;;;;;;;13.75;100.00;101294.75;5011932;28;20049;-82
2022/09/24 10:23:01;;;;;;;8.77;1.88;;;;;;;13.74;100.00;101292.97;4966548;28;20495;-81
2022/09/24 10:25:31;;;;;;;11.70;2.63;;;;;;;13.71;100.00;101306.25;4986223;28;20335;-81
2022/09/24 10:30:52;;;;;;;5.40;1.80;;;;;;;13.65;100.00;101304.50;4972024;28;20046;-81
2022/09/24 10:33:22;;;;;;;6.28;2.15;;;;;;;13.64;100.00;101305.38;4991337;28;20061;-82
2022/09/24 10:36:21;;;;;;;10.40;2.22;;;;;;;13.62;100.00;101297.41;4979329;28;20061;-82
2022/09/24 10:39:09;;;;;;;10.50;2.30;;;;;;;13.62;100.00;101297.41;5006655;28;20050;-82
2022/09/24 10:41:46;;;;;;;9.88;1.90;;;;;;;13.62;100.00;101302.72;4988706;28;20033;-83
2022/09/24 10:44:15;;;;;;;7.63;1.85;;;;;;;13.64;100.00;101300.06;4987152;28;20043;-82
2022/09/24 10:46:58;;;;;;;5.10;1.50;;;;;;;13.67;100.00;101299.19;4973433;28;20460;-82
2022/09/24 10:49:41;;;;;;;7.15;1.45;;;;;;;13.72;100.00;101289.47;4977979;28;20026;-83
2022/09/24 10:52:37;;;;;;;6.53;1.58;;;;;;;13.80;100.00;101295.63;4996321;28;20053;-82
2022/09/24 10:55:28;;;;;;;5.13;1.30;;;;;;;13.83;100.00;101298.25;5007176;28;20042;-81
2022/09/24 10:58:05;;;;;;;8.30;1.60;;;;;;;13.84;100.00;101295.59;5009273;28;20045;-81
2022/09/24 11:01:06;;;;;;;7.80;1.73;;;;;;;13.86;100.00;101300.91;4963482;28;20700;-82
2022/09/24 11:04:19;;;;;;;7.57;2.35;;;;;;;13.85;100.00;101304.44;4967551;28;20740;-82
2022/09/24 11:07:13;;;;;;;8.75;1.70;;;;;;;13.87;100.00;101304.44;4985521;28;20054;-81
2022/09/24 11:10:10;;;;;;;6.97;1.75;;;;;;;13.87;100.00;101305.31;5004531;28;20045;-82
2022/09/24 11:13:01;;;;;;;8.93;2.13;;;;;;;13.87;100.00;101305.31;4971735;28;20050;-81
2022/09/24 11:15:52;;;;;;;6.10;1.13;;;;;;;13.89;100.00;101310.59;4986779;28;20050;-80
2022/09/24 11:18:58;;;;;;;5.97;2.20;;;;;;;13.91;100.00;101314.13;4971892;28;20034;-82
2022/09/24 11:21:33;;;;;;;15.38;1.40;;;;;;;13.92;100.00;101315.91;5014108;28;20075;-81
2022/09/24 11:24:23;;;;;;;6.72;1.73;;;;;;;13.92;100.00;101313.25;4987728;28;20046;-81
2022/09/24 11:27:12;;;;;;;3.93;1.30;;;;;;;13.93;100.00;101318.56;4998232;28;20046;-83
2022/09/24 11:29:58;;;;;;;6.28;1.52;;;;;;;13.91;100.00;101317.66;4972445;28;20042;-81
2022/09/24 11:33:00;;;;;;;6.88;1.50;;;;;;;13.88;100.00;101320.31;4963060;28;20049;-83
2022/09/24 11:35:34;;;;;;;6.40;1.20;;;;;;;13.89;100.00;101318.56;4993759;28;20061;-80
2022/09/24 11:38:26;;;;;;;9.43;1.65;;;;;;;13.89;100.00;101315.91;4995247;28;20050;-83
2022/09/24 11:41:36;;;;;;;5.22;1.23;;;;;;;13.87;100.00;101321.19;4979652;28;20386;-82
2022/09/24 11:44:10;;;;;;;6.70;2.03;;;;;;;13.82;100.00;101312.41;4987656;28;21561;-82
2022/09/24 11:47:00;;;;;;;6.80;1.55;;;;;;;13.81;100.00;101324.75;5017929;28;20046;-82
2022/09/24 11:49:51;;;;;;;5.55;1.83;;;;;;;13.80;100.00;101332.72;4975497;28;20392;-83
2022/09/24 11:52:44;;;;;;;5.88;1.35;;;;;;;13.76;100.00;101326.53;4983313;28;20042;-82
2022/09/24 11:55:21;;;;;;;4.82;1.52;;;;;;;13.74;100.00;101328.31;5009737;28;20573;-82